• Join FlightAware (Why Join?)
  • Login
  • US Flag 
10:01AM EDT


 

Airport Tracker/Info


-or-


 

Live Flight TrackerFlight Track Log ✈ DAL1903 ✈ 04-May-2013 ✈ KLGA - KSRQ

Flight Track Log - Related Links

Times and Time Zones

All times are in EDT time to prevent confusion due to time zone crossing. See the DAL1903 flight status page for this flight to view local times or setup timezone preferences in your user account.

Time Position Orientation Groundspeed Altitude Reporting Facility
EDT Latitude Longitude Course Direction KTS MPH feet Rate Location/Type
11:19AM 40.7500 -73.8167 237° Southwest 162 186 2,300  Level New York TRACON
11:20AM 40.7833 -73.7667 49° Northeast 227 261 4,500 2,820 Climbing New York TRACON
11:21AM 40.6296 -74.2877 244° Southwest  Level FlightAware Approximate
11:21AM 40.8500 -73.7500 11° North 250 288 8,000  Level New York TRACON
11:21AM 40.8833 -73.8333 298° West 306 352 10,800 2,040 Climbing New York TRACON
11:22AM 40.5793 -74.4288 246° West  Level FlightAware Approximate
11:23AM 40.5333 -74.5719 270° West  Level FlightAware Approximate
11:23AM 40.8500 -73.9667 252° West 364 419 12,100  Level New York TRACON
11:23AM 40.8333 -74.1000 261° West 413 475 13,200 1,500 Climbing New York TRACON
11:24AM 40.4930 -74.7141 237° Southwest  Level FlightAware Approximate
11:26AM 40.7156 -74.4233 244° Southwest 425 489 17,100  Level New York Center
11:27AM 40.6533 -74.5458 236° Southwest 438 504 18,400 1,500 Climbing New York Center
11:28AM 40.5800 -74.6839 235° Southwest 450 518 20,200 1,980 Climbing New York Center
11:29AM 40.5047 -74.8217 234° Southwest 463 533 22,500 1,980 Climbing New York Center
11:30AM 40.4147 -74.9497 227° Southwest 468 539 24,300 2,160 Climbing New York Center
11:31AM 40.3267 -75.0806 229° Southwest 486 559 26,900 2,280 Climbing New York Center
11:32AM 40.2406 -75.2086 229° Southwest 486 559 28,900 1,980 Climbing New York Center
11:33AM 40.1544 -75.3333 228° Southwest 481 554 30,900 1,500 Climbing New York Center
11:34AM 40.0706 -75.4581 229° Southwest 469 540 32,000 540 Climbing New York Center
11:35AM 39.9794 -75.5928 229° Southwest 464 534 32,000  Level New York Center
11:36AM 39.8975 -75.7117 228° Southwest 459 528 32,000  Level New York Center
11:37AM 39.7861 -75.8911 231° Southwest 430 495 32,000  Level Washington Center
11:38AM 39.7086 -76.0150 231° Southwest 430 495 32,000  Level Washington Center
11:39AM 39.6333 -76.1358 231° Southwest 435 501 32,000  Level Washington Center
11:40AM 39.5514 -76.2589 229° Southwest 441 507 32,000  Level Washington Center
11:41AM 39.4736 -76.3819 231° Southwest 447 514 32,000  Level Washington Center
11:42AM 39.3956 -76.5047 231° Southwest 447 514 32,000  Level Washington Center
11:43AM 39.3050 -76.6350 228° Southwest 447 514 32,000  Level Washington Center
11:44AM 39.2289 -76.7544 231° Southwest 452 520 32,000  Level Washington Center
11:45AM 39.1503 -76.8764 230° Southwest 452 520 32,000  Level Washington Center
11:46AM 39.0761 -76.9953 231° Southwest 447 514 32,000  Level Washington Center
11:47AM 38.9853 -77.1031 223° Southwest 447 514 32,000  Level Washington Center
11:48AM 38.8922 -77.2053 221° Southwest 442 509 32,000  Level Washington Center
11:49AM 38.8094 -77.2967 221° Southwest 442 509 32,000  Level Washington Center
11:50AM 38.7164 -77.3983 220° Southwest 442 509 32,000  Level Washington Center
11:51AM 38.6231 -77.4997 220° Southwest 442 509 32,000  Level Washington Center
11:52AM 38.5297 -77.6008 220° Southwest 442 509 32,000  Level Washington Center
11:53AM 38.4383 -77.7017 221° Southwest 442 509 32,000  Level Washington Center
11:54AM 38.3469 -77.8022 221° Southwest 442 509 32,000  Level Washington Center
11:55AM 38.2533 -77.9028 220° Southwest 442 509 32,000  Level Washington Center
11:56AM 38.1617 -78.0028 221° Southwest 436 502 32,000  Level Washington Center
11:57AM 38.0697 -78.1028 221° Southwest 436 502 32,000  Level Washington Center
11:58AM 37.9739 -78.2050 220° Southwest 430 495 32,000  Level Washington Center
11:59AM 37.8867 -78.2836 215° Southwest 430 495 32,000  Level Washington Center
12:00PM 37.7886 -78.3719 215° Southwest 430 495 32,000  Level Washington Center
12:01PM 37.6928 -78.4603 216° Southwest 430 495 32,000  Level Washington Center
12:02PM 37.5944 -78.5508 216° Southwest 435 501 32,000  Level Washington Center
12:03PM 37.4897 -78.6517 217° Southwest 435 501 32,000  Level Washington Center
12:04PM 37.3936 -78.7392 216° Southwest 440 506 32,000  Level Washington Center
12:05PM 37.2953 -78.8264 215° Southwest 440 506 32,000  Level Washington Center
12:06PM 37.1969 -78.9136 215° Southwest 440 506 32,000  Level Washington Center
12:07PM 37.1006 -79.0033 217° Southwest 440 506 32,000  Level Washington Center
12:08PM 37.0147 -79.0878 218° Southwest 440 506 32,000  Level Washington Center
12:09PM 36.9183 -79.1769 216° Southwest 440 506 32,000  Level Washington Center
12:10PM 36.8236 -79.2661 217° Southwest 440 506 32,000  Level Washington Center
12:11PM 36.7292 -79.3547 217° Southwest 440 506 32,000  Level Washington Center
12:12PM 36.6325 -79.4433 216° Southwest 440 506 32,000  Level Washington Center
12:14PM 36.4517 -79.6044 216° Southwest 433 498 32,000  Level Atlanta Center
12:15PM 36.3525 -79.6925 216° Southwest 433 498 32,000  Level Atlanta Center
12:16PM 36.2556 -79.7825 217° Southwest 439 505 32,000  Level Atlanta Center
12:17PM 36.1708 -79.8617 217° Southwest 434 499 32,000  Level Atlanta Center
12:18PM 36.0756 -79.9436 215° Southwest 434 499 32,000  Level Atlanta Center
12:19PM 35.9736 -80.0131 209° Southwest 429 494 32,000  Level Atlanta Center
12:20PM 35.8647 -80.0644 201° Southwest 424 488 32,000  Level Atlanta Center
12:21PM 35.7578 -80.1183 202° Southwest 424 488 32,000  Level Atlanta Center
12:22PM 35.6389 -80.1803 203° Southwest 424 488 32,000  Level Atlanta Center
12:23PM 35.5300 -80.2339 202° Southwest 424 488 32,000  Level Atlanta Center
12:24PM 35.4231 -80.2872 202° Southwest 424 488 32,000  Level Atlanta Center
12:25PM 35.3161 -80.3406 202° Southwest 424 488 32,000  Level Atlanta Center
12:26PM 35.2094 -80.3936 202° Southwest 424 488 32,000  Level Atlanta Center
12:27PM 35.1106 -80.4436 202° Southwest 424 488 32,000  Level Atlanta Center
12:28PM 35.0017 -80.4989 203° Southwest 429 494 32,000  Level Atlanta Center
12:29PM 34.8967 -80.5492 201° Southwest 429 494 32,000  Level Atlanta Center
12:31PM 34.6411 -80.6794 203° Southwest 418 481 32,000  Level Jacksonville Center
12:32PM 34.5294 -80.7328 201° Southwest 423 487 32,000  Level Jacksonville Center
12:33PM 34.4217 -80.7858 202° Southwest 429 494 32,000  Level Jacksonville Center
12:34PM 34.3122 -80.8436 204° Southwest 423 487 32,000  Level Jacksonville Center
12:35PM 34.2106 -80.8889 200° South 416 479 32,000  Level Jacksonville Center
12:36PM 34.1050 -80.9389 201° Southwest 410 472 32,000  Level Jacksonville Center
12:37PM 33.9994 -80.9889 201° Southwest 410 472 32,000  Level Jacksonville Center
12:38PM 33.8917 -81.0361 200° South 410 472 32,000  Level Jacksonville Center
12:39PM 33.7900 -81.0883 203° Southwest 405 466 32,000  Level Jacksonville Center
12:40PM 33.6825 -81.1456 204° Southwest 416 479 32,000  Level Jacksonville Center
12:41PM 33.5767 -81.1950 201° Southwest 411 473 32,000  Level Jacksonville Center
12:42PM 33.4708 -81.2517 204° Southwest 411 473 32,000  Level Jacksonville Center
12:43PM 33.3867 -81.3478 224° Southwest 416 479 32,000  Level Jacksonville Center
12:44PM 33.3000 -81.4361 220° Southwest 416 479 32,000  Level Jacksonville Center
12:45PM 33.2114 -81.5344 223° Southwest 427 491 32,000  Level Jacksonville Center
12:46PM 33.1225 -81.6325 223° Southwest 438 504 32,000  Level Jacksonville Center
12:47PM 33.0358 -81.7281 223° Southwest 433 498 32,000  Level Jacksonville Center
12:48PM 32.9406 -81.8058 214° Southwest 433 498 32,000  Level Jacksonville Center
12:49PM 32.8239 -81.8344 192° South 425 489 32,000  Level Jacksonville Center
12:50PM 32.7006 -81.8261 177° South 419 482 32,000  Level Jacksonville Center
12:51PM 32.5942 -81.8150 175° South 433 498 32,000  Level Jacksonville Center
12:52PM 32.4622 -81.7722 165° South 446 513 32,000  Level Jacksonville Center
12:53PM 32.3536 -81.7761 182° South 445 512 32,000  Level Jacksonville Center
12:54PM 32.2203 -81.8022 189° South 445 512 32,000  Level Jacksonville Center
12:55PM 32.1014 -81.8281 190° South 445 512 32,000  Level Jacksonville Center
12:56PM 31.9931 -81.8492 189° South 445 512 32,000  Level Jacksonville Center
12:57PM 31.8617 -81.8725 189° South 445 512 32,000  Level Jacksonville Center
12:58PM 31.7533 -81.8933 189° South 445 512 32,000  Level Jacksonville Center
12:59PM 31.6200 -81.9192 189° South 445 512 32,000  Level Jacksonville Center
01:00PM 31.4989 -81.9400 188° South 442 509 32,000  Level Jacksonville Center
01:01PM 31.3928 -81.9628 190° South 442 509 32,000  Level Jacksonville Center
01:02PM 31.2717 -81.9858 189° South 442 509 32,000  Level Jacksonville Center
01:03PM 31.1550 -82.0089 190° South 442 509 32,000  Level Jacksonville Center
01:04PM 31.0342 -82.0294 188° South 442 509 32,000  Level Jacksonville Center
01:05PM 30.9153 -82.0547 190° South 442 509 32,000  Level Jacksonville Center
01:06PM 30.7964 -82.0728 187° South 442 509 32,000  Level Jacksonville Center
01:07PM 30.6775 -82.0956 189° South 442 509 32,000  Level Jacksonville Center
01:08PM 30.5461 -82.1158 188° South 442 509 32,000  Level Jacksonville Center
01:09PM 30.4250 -82.1386 189° South 447 514 32,000  Level Jacksonville Center
01:10PM 30.3208 -82.1561 188° South 439 505 32,000  Level Jacksonville Center
01:11PM 30.1997 -82.1789 189° South 439 505 32,000  Level Jacksonville Center
01:12PM 30.0808 -82.2014 189° South 439 505 32,000  Level Jacksonville Center
01:13PM 29.9475 -82.2286 190° South 439 505 32,000 -1,440 Level Jacksonville Center
01:14PM 29.8286 -82.2508 189° South 439 505 29,200 -2,700 Descending Jacksonville Center
01:15PM 29.7200 -82.2683 188° South 444 511 26,700 -2,220 Descending Jacksonville Center
01:16PM 29.5989 -82.2597 176° South 444 511 24,800 -1,620 Descending Jacksonville Center
01:17PM 29.4842 -82.2436 173° South 433 498 23,500 -1,200 Descending Jacksonville Center
01:18PM 29.3692 -82.2253 172° South 428 493 22,400 -960 Descending Jacksonville Center
01:19PM 29.2564 -82.2069 172° South 422 486 21,600 -840 Descending Jacksonville Center
01:20PM 29.1456 -82.1911 173° South 411 473 20,800 -1,500 Descending Jacksonville Center
01:21PM 29.0369 -82.1753 173° South 401 461 18,700 -2,340 Descending Jacksonville Center
01:22PM 28.9306 -82.1594 173° South 396 456 16,200 -1,800 Descending Jacksonville Center
01:25PM 28.7000 -82.1167 171° South 366 421 13,100 -1,260 Descending Tampa TRACON
01:26PM 28.5667 -82.1000 174° South 363 418 11,900 -1,020 Descending Tampa TRACON
01:27PM 28.5000 -82.1000 180° South 361 415 11,100 -480 Descending Tampa TRACON
01:28PM 28.3833 -82.0833 173° South 359 413 11,000 -60 Descending Tampa TRACON
01:29PM 28.2833 -82.0667 172° South 353 406 11,000  Level Tampa TRACON
01:30PM 28.2000 -82.1000 199° South 352 405 11,000  Level Tampa TRACON
01:31PM 28.1000 -82.1167 188° South 351 404 11,100 -300 Climbing Tampa TRACON
01:32PM 28.0000 -82.1500 196° South 345 397 10,500 -840 Descending Tampa TRACON
01:33PM 27.9333 -82.1833 204° Southwest 298 343 9,500 -1,260 Descending Tampa TRACON
01:34PM 27.8500 -82.2000 190° South 295 339 8,000 -1,440 Descending Tampa TRACON
01:35PM 27.7667 -82.2333 199° South 279 321 6,700 -960 Descending Tampa TRACON
01:36PM 27.7167 -82.2833 222° Southwest 269 310 6,100 -360 Descending Tampa TRACON
01:37PM 27.6500 -82.3500 222° Southwest 271 312 6,000 -660 Descending Tampa TRACON
01:38PM 27.5833 -82.3500 180° South 268 308 4,800 -1,320 Descending Tampa TRACON
01:39PM 27.5167 -82.3667 193° South 259 298 3,500 -900 Descending Tampa TRACON
01:40PM 27.4500 -82.3667 180° South 187 215 3,100 -240 Descending Tampa TRACON
01:41PM 27.4000 -82.3667 180° South 184 212 3,000 -480 Descending Tampa TRACON
01:42PM 27.3500 -82.3667 180° South 184 212 2,100 -600 Descending Tampa TRACON
01:43PM 27.3000 -82.3500 164° South 182 209 1,800 -180 Descending Tampa TRACON
01:44PM 27.2667 -82.3833 222° Southwest 156 180 1,800  Level Tampa TRACON